Detall de PIREP

Printer-friendly versionPDF version

[2014/06/03 10:03:00]
Flight IATA:CT2203
Pilot Number:042
Company ICAO:CAT
Aircraft Type:F100/A
PAX:48
Aircraft Registration:PFJ
Departing Airport: LFBD
Destination Airport: LFMP
Alternate Airport:LEGE
Online: VATSIM
Route:N0350F190 SAU G39 SECHE/N0450F230 UN863 AGN UN727 TOU UN727 LOMRA/N0350F190 R17 MORIL
Flight Level:F230
No Slew and time accel
No pause
Crash detect
Detect pilot in Cockpit between each 30 and 45 minutes
10:03 Zero fuel Weight: 81825 Lbs, Fuel Weight: 8430 Lbs
10:03 VATSIM:LFBD 030930Z AUTO 25008KT 190V270 9999 FEW027 SCT050 OVC066 19/12 Q1019
10:03 VATSIM:LFMP 030930Z 33014KT 290V050 9999 FEW033 24/08 Q1016 NOSIG
10:05 Parking Brakes off
10:07 Take-off
10:07 Take off Weight: 89943 Lbs
10:07 Wind: 231º @ 007 Knots Heading: 284º
10:07 POS N44º 49´ 45´´ W000º 43´ 10´´
10:07 Gear Up: 169 Knots
10:07 Flaps:2 at 169 Knots
10:07 Flaps:1 at 173 Knots
10:08 Flaps:0 at 205 Knots
10:18 TOC
10:18 Fuel Weight: 6542 Lb
10:22 Wind:309º@020 Knots Heading: 157º Ground Speed: 453 Knots Altitude 23054 ft
10:32 TOD
10:32 Fuel Weight: 5142 Lb
10:37 Wind:343º@040 Knots Heading: 129º Ground Speed: 347 Knots Altitude 17076 ft
10:40 Flaps:1 at 222 Knots
10:41 Flaps:2 at 177 Knots
10:44 Gear Down: 189 Knots
10:44 Flaps:3 at 189 Knots
10:47 TouchDown:Rate -274 ft/min Speed: 142 Knots
10:47 VATSIM:LFMP 031022Z 35014KT 320V050 9999 FEW033 25/09 Q1016 NOSIG
10:47 Land
10:47 Wind:038º@014 Knots
10:47 Heading: 322º
10:47 Flight Duration: 00:40
10:47 Landing Weight: 85904 Lbs
10:47 POS N42º 44´ 58´´ E002º 51´ 55´´
10:48 Parking brakes on
10:48 Block to Block Duration: 00:43
10:48 Final Fuel: 4069 Lbls
10:48 Spent Fuel: 4360 Lbls
10:48 Flight Length: 243 NM
10:48 TOD Land Length: 72 NM

Exportar CSV

Powered by Drupal - Modified by Danger4k